Blackwell, Texas
Current Conditions -  °F | °C
As of 7:15 AM on Wednesday 22 Oct 2014 (Local Time) from KSWW Reporting Station
Overcast Overcast  
Wind Chill: 62°   Ceiling: 10000
Heat Index: 62°   Visibility: 10mi
Dew Point: 54°   Wind: 6mph
Humidity: 75%   Direction: 160°SSE
Pressure: 30.13"   Gusts: NA
Location:  32.09°N, 100.32°W
Report Text: KSWW 221215Z AUTO 16005KT 10SM OVC100 17/12 A3013 RMK AO2 T01650120
Loading
Personal Weather Stations






























Interactive Weather Map
Tropical Storm Tracking
New forecast layout! Learn more

10-Day Weather Forecast

Advertisements
Track Severe Weather on mobile